Time;durP1;ratioP1;P1;durP2;ratioP2;P2;SDS_P1;SDS_P2;PMS_P1;PMS_P2;Temp;Humidity;BMP_temperature;BMP_pressure;BME280_temperature;BME280_humidity;BME280_pressure;Samples;Min_cycle;Max_cycle;Signal;HPM_P1;HPM_P2
2020/12/05 00:02:21;;;;;;;4.13;2.60;;;5.90;77.90;;;;;;5023490;28;20037;-78
2020/12/05 00:04:47;;;;;;;3.67;3.00;;;5.80;77.80;;;;;;5003196;28;20497;-78
2020/12/05 00:07:13;;;;;;;4.88;2.95;;;5.80;77.80;;;;;;5020265;28;20048;-77
2020/12/05 00:09:39;;;;;;;4.50;2.70;;;5.80;77.90;;;;;;5013063;28;20030;-77
2020/12/05 00:12:07;;;;;;;4.82;2.92;;;5.80;77.90;;;;;;4996379;28;20034;-77
2020/12/05 00:14:33;;;;;;;4.68;2.70;;;5.80;77.90;;;;;;5028454;28;20037;-76
2020/12/05 00:16:58;;;;;;;3.72;2.60;;;5.70;77.80;;;;;;4980018;28;20044;-76
2020/12/05 00:19:24;;;;;;;4.78;2.95;;;5.70;77.80;;;;;;5014596;28;20026;-77
2020/12/05 00:21:51;;;;;;;4.20;2.70;;;5.70;77.80;;;;;;5013019;28;20018;-76
2020/12/05 00:24:17;;;;;;;3.88;2.83;;;5.70;77.80;;;;;;5011838;28;20030;-77
2020/12/05 00:26:43;;;;;;;4.55;2.60;;;5.70;77.80;;;;;;4999396;28;20072;-76
2020/12/05 00:29:09;;;;;;;4.68;2.92;;;5.70;77.90;;;;;;5022739;28;20450;-76
2020/12/05 00:31:34;;;;;;;4.68;2.90;;;5.60;77.80;;;;;;5004773;28;20101;-76
2020/12/05 00:34:00;;;;;;;4.88;2.97;;;5.60;77.80;;;;;;5017919;28;20035;-76
2020/12/05 00:36:26;;;;;;;4.07;3.25;;;5.60;77.80;;;;;;5015901;28;20358;-77
2020/12/05 00:38:54;;;;;;;4.00;2.63;;;5.60;77.80;;;;;;5013598;28;20079;-76
2020/12/05 00:41:20;;;;;;;4.78;2.72;;;5.60;77.90;;;;;;4996586;28;20030;-75
2020/12/05 00:43:45;;;;;;;3.83;2.78;;;5.60;77.80;;;;;;5010987;28;20049;-79
2020/12/05 00:46:11;;;;;;;4.25;3.10;;;5.60;77.90;;;;;;5020244;28;20079;-76
2020/12/05 00:48:37;;;;;;;4.50;3.25;;;5.50;77.80;;;;;;5012864;28;20077;-76
2020/12/05 00:51:03;;;;;;;5.00;2.97;;;5.50;77.90;;;;;;4998258;28;20107;-76
2020/12/05 00:53:31;;;;;;;3.85;2.70;;;5.50;77.90;;;;;;5011998;28;20033;-76
2020/12/05 00:55:56;;;;;;;3.95;2.95;;;5.50;77.80;;;;;;5028539;28;20037;-77
2020/12/05 00:58:22;;;;;;;5.00;2.95;;;5.50;77.90;;;;;;4995471;28;20050;-76
2020/12/05 01:00:48;;;;;;;4.05;2.75;;;5.50;77.90;;;;;;5012329;28;20037;-76
2020/12/05 01:03:14;;;;;;;4.25;2.50;;;5.40;77.80;;;;;;4996089;28;20034;-76
2020/12/05 01:05:39;;;;;;;4.13;2.70;;;5.40;77.80;;;;;;4995970;28;20061;-77
2020/12/05 01:08:06;;;;;;;4.30;2.72;;;5.40;77.90;;;;;;5021201;28;20085;-76
2020/12/05 01:10:38;;;;;;;3.90;2.92;;;5.40;77.90;;;;;;5012576;28;20079;-76
2020/12/05 01:13:04;;;;;;;4.32;2.90;;;5.40;77.90;;;;;;4994772;28;20143;-77
2020/12/05 01:15:30;;;;;;;3.97;2.40;;;5.40;77.80;;;;;;4994909;28;20026;-76
2020/12/05 01:17:56;;;;;;;5.20;2.95;;;5.30;77.80;;;;;;5004275;28;20504;-76
2020/12/05 01:20:23;;;;;;;5.20;3.20;;;5.30;77.90;;;;;;5014281;28;20029;-76
2020/12/05 01:22:49;;;;;;;3.97;2.53;;;5.30;77.80;;;;;;5012605;28;20037;-76
2020/12/05 01:25:15;;;;;;;4.50;3.10;;;5.30;77.80;;;;;;5012050;28;20030;-76
2020/12/05 01:27:42;;;;;;;3.85;2.85;;;5.30;77.90;;;;;;4995870;28;20045;-78
2020/12/05 01:30:08;;;;;;;4.25;2.90;;;5.30;78.00;;;;;;5010957;28;20069;-76
2020/12/05 01:32:33;;;;;;;4.25;2.97;;;5.20;77.80;;;;;;4994933;28;20057;-76
2020/12/05 01:34:59;;;;;;;4.13;2.83;;;5.30;77.90;;;;;;5006631;28;20030;-76
2020/12/05 01:37:25;;;;;;;3.88;2.58;;;5.20;78.50;;;;;;4984846;28;20036;-76
2020/12/05 01:39:50;;;;;;;4.25;3.13;;;5.20;77.80;;;;;;4995061;28;20106;-76
2020/12/05 01:42:17;;;;;;;3.97;3.00;;;5.20;77.80;;;;;;4986397;28;20028;-76
2020/12/05 01:44:42;;;;;;;4.32;2.90;;;5.20;77.90;;;;;;5018341;28;20088;-77
2020/12/05 01:47:10;;;;;;;4.13;2.97;;;5.20;77.80;;;;;;4995328;28;20422;-76
2020/12/05 01:49:36;;;;;;;5.30;3.10;;;5.20;77.90;;;;;;5003527;28;20041;-76
2020/12/05 01:52:02;;;;;;;4.63;3.05;;;5.10;77.80;;;;;;5013187;28;20026;-76
2020/12/05 01:54:28;;;;;;;4.95;3.47;;;5.10;77.80;;;;;;5011964;28;20041;-76
2020/12/05 01:57:04;;;;;;;4.10;2.97;;;5.10;77.80;;;;;;4994232;28;20053;-76
2020/12/05 01:59:30;;;;;;;4.93;3.28;;;5.10;77.80;;;;;;5011537;28;20076;-77
2020/12/05 02:01:59;;;;;;;4.10;2.88;;;5.10;77.80;;;;;;4993785;28;20026;-76
2020/12/05 02:04:38;;;;;;;4.00;2.88;;;5.00;77.80;;;;;;5010495;28;20061;-76
2020/12/05 02:07:13;;;;;;;4.35;2.70;;;5.00;77.80;;;;;;5010871;28;20112;-80
2020/12/05 02:09:42;;;;;;;5.18;2.95;;;5.00;77.80;;;;;;5013117;28;20030;-76
2020/12/05 02:12:34;;;;;;;4.10;2.83;;;5.00;77.80;;;;;;5013591;28;20179;-76
2020/12/05 02:15:23;;;;;;;3.95;2.80;;;5.00;77.80;;;;;;5030635;28;20034;-76
2020/12/05 02:18:05;;;;;;;4.45;3.13;;;5.00;77.80;;;;;;5014919;28;20109;-77
2020/12/05 02:20:38;;;;;;;3.88;2.88;;;5.00;77.80;;;;;;5008401;28;20034;-76
2020/12/05 02:23:18;;;;;;;3.78;2.90;;;4.90;78.40;;;;;;5014775;28;20062;-76
2020/12/05 02:25:50;;;;;;;4.38;2.70;;;4.90;77.80;;;;;;5016554;28;20041;-77
2020/12/05 02:28:21;;;;;;;4.75;2.67;;;4.90;77.90;;;;;;4999076;28;20038;-76
2020/12/05 02:30:50;;;;;;;4.63;3.13;;;4.90;77.90;;;;;;4998996;28;20092;-79
2020/12/05 02:33:17;;;;;;;4.47;2.80;;;4.90;77.90;;;;;;5031613;28;20142;-77
2020/12/05 02:35:43;;;;;;;4.85;3.17;;;4.90;77.90;;;;;;4998640;28;20029;-76
2020/12/05 02:38:35;;;;;;;4.03;2.67;;;4.90;77.90;;;;;;5014450;28;20117;-76
2020/12/05 02:41:01;;;;;;;4.50;3.13;;;4.90;78.00;;;;;;5031177;28;20026;-77
2020/12/05 02:43:28;;;;;;;4.40;3.00;;;4.80;77.80;;;;;;4998036;28;20040;-76
2020/12/05 02:45:54;;;;;;;4.32;2.97;;;4.80;77.90;;;;;;4997393;28;20026;-76
2020/12/05 02:48:20;;;;;;;4.32;2.97;;;4.80;77.90;;;;;;5013872;28;20069;-77
2020/12/05 02:50:46;;;;;;;4.70;3.10;;;4.80;77.90;;;;;;5014137;28;20030;-76
2020/12/05 02:53:11;;;;;;;5.63;3.28;;;4.80;78.00;;;;;;4997875;28;20099;-76
2020/12/05 02:55:37;;;;;;;4.43;3.20;;;4.80;77.90;;;;;;4997192;28;20041;-76
2020/12/05 02:58:03;;;;;;;4.40;2.80;;;4.80;78.00;;;;;;5014513;28;20625;-76
2020/12/05 03:00:29;;;;;;;4.32;3.00;;;4.80;78.00;;;;;;4997342;28;20041;-76
2020/12/05 03:02:55;;;;;;;4.53;3.15;;;4.80;78.00;;;;;;4997203;28;20116;-76
2020/12/05 03:05:20;;;;;;;4.28;3.00;;;4.80;78.00;;;;;;4998084;28;20065;-76
2020/12/05 03:07:46;;;;;;;6.03;3.20;;;4.80;78.00;;;;;;5014306;28;20041;-79
2020/12/05 03:10:14;;;;;;;4.30;3.25;;;4.80;78.00;;;;;;5015200;28;20018;-76
2020/12/05 03:12:40;;;;;;;4.38;3.03;;;4.80;78.00;;;;;;5014657;28;20033;-77
2020/12/05 03:15:06;;;;;;;4.90;3.17;;;4.80;78.00;;;;;;4997681;28;20038;-76
2020/12/05 03:17:32;;;;;;;4.15;3.30;;;4.80;78.00;;;;;;4999057;28;20486;-76
2020/12/05 03:19:57;;;;;;;4.50;2.97;;;4.80;78.10;;;;;;5015490;28;20026;-80
2020/12/05 03:22:23;;;;;;;4.20;3.25;;;4.70;78.00;;;;;;5022226;28;20462;-76
2020/12/05 03:24:49;;;;;;;4.28;3.00;;;4.80;78.10;;;;;;5013821;28;20025;-77
2020/12/05 03:27:15;;;;;;;4.93;3.35;;;4.80;78.10;;;;;;5024124;28;20053;-76
2020/12/05 03:29:41;;;;;;;5.10;3.40;;;4.70;78.00;;;;;;4995171;28;20421;-77
2020/12/05 03:32:14;;;;;;;4.50;3.15;;;4.80;78.20;;;;;;5013097;28;20057;-77
2020/12/05 03:34:42;;;;;;;5.68;3.17;;;4.80;78.10;;;;;;4998053;28;20073;-76
2020/12/05 03:37:11;;;;;;;4.55;2.97;;;4.80;78.10;;;;;;5018067;28;20032;-76
2020/12/05 03:39:37;;;;;;;5.45;3.30;;;4.70;78.80;;;;;;5016763;28;20068;-76
2020/12/05 03:42:04;;;;;;;5.38;3.30;;;4.80;78.10;;;;;;5013061;28;20026;-76
2020/12/05 03:44:30;;;;;;;4.78;3.13;;;4.80;78.20;;;;;;5014547;28;20034;-76
2020/12/05 03:46:56;;;;;;;3.90;3.08;;;4.70;78.10;;;;;;4996993;28;20536;-76
2020/12/05 03:49:22;;;;;;;4.38;3.10;;;4.70;78.10;;;;;;4997739;28;20120;-76
2020/12/05 03:51:48;;;;;;;4.15;3.05;;;4.80;78.20;;;;;;5013651;28;20040;-76
2020/12/05 03:54:14;;;;;;;5.13;2.95;;;4.70;78.10;;;;;;5013125;28;20056;-76
2020/12/05 03:56:40;;;;;;;4.78;3.13;;;4.70;78.10;;;;;;5013618;28;20110;-76
2020/12/05 03:59:06;;;;;;;4.28;3.08;;;4.70;78.20;;;;;;5010031;28;20485;-77
2020/12/05 04:01:32;;;;;;;5.20;3.30;;;4.70;78.20;;;;;;5009862;28;20473;-76
2020/12/05 04:03:58;;;;;;;4.43;3.40;;;4.70;78.20;;;;;;5013003;28;20037;-76
2020/12/05 04:06:23;;;;;;;4.78;3.30;;;4.70;78.20;;;;;;5030074;28;20034;-76
2020/12/05 04:08:49;;;;;;;5.22;2.95;;;4.70;78.20;;;;;;4997443;28;20028;-78
2020/12/05 04:11:15;;;;;;;4.35;3.15;;;4.70;78.20;;;;;;4997280;28;20022;-76
2020/12/05 04:13:40;;;;;;;5.25;3.22;;;4.70;78.20;;;;;;5020098;28;20065;-77
2020/12/05 04:16:06;;;;;;;4.43;2.80;;;4.70;78.20;;;;;;5014163;28;20374;-76
2020/12/05 04:18:32;;;;;;;4.50;3.22;;;4.70;78.20;;;;;;4980794;28;20504;-76
2020/12/05 04:20:58;;;;;;;4.50;2.90;;;4.70;78.20;;;;;;5015069;28;20029;-77
2020/12/05 04:23:23;;;;;;;5.30;3.33;;;4.70;78.20;;;;;;4996998;28;20026;-76
2020/12/05 04:25:49;;;;;;;4.70;3.10;;;4.70;78.20;;;;;;4997583;28;20077;-77
2020/12/05 04:28:15;;;;;;;4.10;2.90;;;4.70;78.80;;;;;;5012481;28;20077;-76
2020/12/05 04:30:41;;;;;;;3.65;2.67;;;4.60;78.20;;;;;;5012676;28;21735;-76
2020/12/05 04:33:06;;;;;;;4.57;2.78;;;4.60;78.20;;;;;;4995632;28;20046;-76
2020/12/05 04:35:32;;;;;;;4.90;3.20;;;4.70;78.20;;;;;;5012534;28;20044;-76
2020/12/05 04:37:58;;;;;;;3.95;2.83;;;4.60;78.20;;;;;;5012198;28;20470;-76
2020/12/05 04:40:24;;;;;;;4.40;3.00;;;4.60;78.20;;;;;;5007983;28;20048;-76
2020/12/05 04:42:50;;;;;;;4.05;3.03;;;4.60;78.20;;;;;;5012394;28;20030;-76
2020/12/05 04:45:16;;;;;;;4.70;2.95;;;4.60;78.20;;;;;;5012295;28;20044;-77
2020/12/05 04:47:44;;;;;;;4.32;3.25;;;4.60;78.20;;;;;;4985438;28;20430;-77
2020/12/05 04:50:11;;;;;;;3.90;3.00;;;4.60;78.20;;;;;;5013250;28;20030;-76
2020/12/05 04:52:39;;;;;;;5.53;3.00;;;4.60;78.20;;;;;;5011471;28;20083;-77
2020/12/05 04:55:06;;;;;;;4.80;3.35;;;4.60;78.20;;;;;;5012066;28;20033;-77
2020/12/05 04:57:45;;;;;;;4.38;3.15;;;4.60;78.20;;;;;;5012727;28;20030;-77
2020/12/05 05:00:11;;;;;;;4.32;3.15;;;4.50;78.20;;;;;;5011008;28;20120;-76
2020/12/05 05:02:42;;;;;;;4.35;2.92;;;4.50;78.20;;;;;;5012654;28;20050;-76
2020/12/05 05:05:15;;;;;;;4.57;3.00;;;4.50;78.20;;;;;;5011016;28;20066;-77
2020/12/05 05:07:51;;;;;;;3.83;2.90;;;4.50;78.80;;;;;;5005068;28;20040;-78
2020/12/05 05:10:25;;;;;;;4.07;3.00;;;4.50;78.20;;;;;;5010478;28;20092;-76
2020/12/05 05:12:52;;;;;;;4.63;3.10;;;4.50;78.20;;;;;;5011590;28;20042;-76
2020/12/05 05:15:29;;;;;;;4.00;2.70;;;4.50;78.20;;;;;;5012275;28;20022;-76
2020/12/05 05:18:03;;;;;;;4.10;2.80;;;4.50;78.20;;;;;;5011975;28;20036;-76
2020/12/05 05:20:36;;;;;;;4.30;2.90;;;4.50;78.20;;;;;;4982585;28;20499;-76
2020/12/05 05:23:13;;;;;;;3.90;3.00;;;4.40;78.10;;;;;;5006979;28;20077;-76
2020/12/05 05:25:49;;;;;;;4.25;2.78;;;4.50;78.20;;;;;;5012152;28;20026;-76
2020/12/05 05:28:19;;;;;;;4.53;3.30;;;4.40;78.20;;;;;;5011834;28;20117;-76
2020/12/05 05:33:47;;;;;;;4.72;3.55;;;4.40;78.20;;;;;;5004114;28;20444;-76
2020/12/05 05:36:22;;;;;;;3.90;2.78;;;4.40;78.10;;;;;;4995197;28;20427;-76
2020/12/05 05:39:11;;;;;;;4.00;2.90;;;4.40;78.10;;;;;;4992419;28;20030;-76
2020/12/05 05:41:39;;;;;;;4.63;3.20;;;4.40;78.20;;;;;;5010535;28;20481;-75
2020/12/05 05:44:11;;;;;;;4.28;2.83;;;4.30;78.00;;;;;;5010815;28;20053;-75
2020/12/05 05:46:46;;;;;;;4.03;3.15;;;4.30;78.10;;;;;;5011526;28;21677;-75
2020/12/05 05:49:14;;;;;;;4.18;2.83;;;4.30;78.10;;;;;;5011015;28;20026;-75
2020/12/05 05:51:45;;;;;;;4.43;3.00;;;4.30;78.10;;;;;;5013017;28;20466;-75
2020/12/05 05:54:12;;;;;;;4.07;2.97;;;4.30;78.10;;;;;;5016574;28;20029;-78
2020/12/05 05:56:38;;;;;;;4.35;3.00;;;4.30;78.10;;;;;;5022261;28;20033;-75
2020/12/05 05:59:06;;;;;;;5.57;3.17;;;4.30;78.10;;;;;;4995672;28;20141;-75
2020/12/05 06:01:36;;;;;;;4.63;3.03;;;4.30;78.10;;;;;;5029278;28;20033;-75
2020/12/05 06:04:05;;;;;;;4.88;3.20;;;4.30;78.20;;;;;;4995236;28;20030;-75
2020/12/05 06:06:33;;;;;;;4.50;3.08;;;4.20;78.10;;;;;;5012702;28;20030;-76
2020/12/05 06:09:03;;;;;;;4.43;3.40;;;4.30;78.20;;;;;;5011370;28;20037;-75
2020/12/05 06:11:33;;;;;;;4.93;3.40;;;4.30;78.20;;;;;;5012112;28;20041;-77
2020/12/05 06:14:04;;;;;;;4.15;3.22;;;4.20;78.10;;;;;;5011967;28;20068;-79
2020/12/05 06:16:31;;;;;;;4.10;3.08;;;4.20;78.10;;;;;;5004116;28;20034;-75
2020/12/05 06:18:58;;;;;;;3.47;2.80;;;4.20;78.10;;;;;;5019470;28;20481;-75
2020/12/05 06:21:31;;;;;;;4.38;3.17;;;4.20;78.10;;;;;;4995137;28;20072;-75
2020/12/05 06:24:05;;;;;;;4.68;3.38;;;4.20;78.10;;;;;;4994689;28;20034;-75
2020/12/05 06:26:34;;;;;;;4.22;3.45;;;4.20;78.20;;;;;;5018333;28;20393;-74
2020/12/05 06:29:01;;;;;;;4.57;3.22;;;4.20;78.10;;;;;;5003588;28;20022;-76
2020/12/05 06:31:42;;;;;;;4.03;3.13;;;4.10;78.00;;;;;;5011108;28;20061;-75
2020/12/05 06:34:10;;;;;;;5.25;3.25;;;4.20;78.20;;;;;;4999591;28;20030;-74
2020/12/05 06:36:40;;;;;;;4.75;3.13;;;4.20;78.10;;;;;;5011272;28;20022;-76
2020/12/05 06:39:06;;;;;;;4.88;3.38;;;4.10;78.00;;;;;;5010972;28;20113;-75
2020/12/05 06:41:40;;;;;;;3.83;3.08;;;4.10;78.10;;;;;;4994693;28;20109;-75
2020/12/05 06:44:18;;;;;;;5.40;3.80;;;4.10;78.10;;;;;;5004015;28;20033;-76
2020/12/05 06:46:51;;;;;;;5.20;3.42;;;4.10;78.10;;;;;;5024219;28;20036;-77
2020/12/05 06:49:38;;;;;;;5.28;3.60;;;4.10;78.10;;;;;;5015522;28;20458;-75
2020/12/05 06:52:22;;;;;;;5.00;3.25;;;4.00;78.10;;;;;;4996770;28;20026;-75
2020/12/05 06:54:51;;;;;;;4.07;3.10;;;4.10;78.10;;;;;;5013491;28;20096;-75
2020/12/05 06:57:17;;;;;;;4.60;3.30;;;4.00;78.00;;;;;;5029034;28;20021;-76
2020/12/05 06:59:43;;;;;;;5.03;3.08;;;4.00;78.00;;;;;;5022509;28;20030;-76
2020/12/05 07:02:28;;;;;;;4.55;3.17;;;4.00;78.00;;;;;;5015380;28;20109;-75
2020/12/05 07:05:16;;;;;;;4.13;2.92;;;4.00;78.10;;;;;;5014129;28;20581;-75
2020/12/05 07:07:42;;;;;;;4.47;3.30;;;4.00;78.10;;;;;;4997064;28;20034;-75
2020/12/05 07:10:08;;;;;;;4.43;3.28;;;4.00;78.00;;;;;;5000410;28;20058;-75
2020/12/05 07:12:41;;;;;;;5.40;3.40;;;3.90;78.00;;;;;;5001711;28;20027;-76
2020/12/05 07:15:26;;;;;;;5.38;3.70;;;4.00;78.10;;;;;;5012626;28;20247;-77
2020/12/05 07:17:52;;;;;;;4.90;3.47;;;3.90;78.10;;;;;;4998445;28;20030;-75
2020/12/05 07:20:19;;;;;;;5.00;3.55;;;3.90;78.00;;;;;;5013473;28;20022;-75
2020/12/05 07:22:47;;;;;;;4.57;3.40;;;3.90;78.00;;;;;;4996459;28;20038;-78
2020/12/05 07:25:13;;;;;;;4.78;3.58;;;3.90;78.00;;;;;;4996765;28;20026;-75
2020/12/05 07:27:39;;;;;;;5.05;3.50;;;3.90;78.00;;;;;;5013540;28;20030;-74
2020/12/05 07:30:08;;;;;;;4.63;3.50;;;3.90;78.00;;;;;;4996257;28;20034;-75
2020/12/05 07:32:36;;;;;;;4.75;3.63;;;3.90;78.10;;;;;;4997428;28;20152;-75
2020/12/05 07:35:05;;;;;;;5.40;3.90;;;3.90;78.10;;;;;;4997470;28;20604;-79
2020/12/05 07:37:33;;;;;;;4.90;3.83;;;3.90;78.10;;;;;;5013863;28;20084;-76
2020/12/05 07:39:59;;;;;;;4.53;3.38;;;3.90;78.10;;;;;;4996944;28;20041;-75
2020/12/05 07:42:32;;;;;;;5.00;3.60;;;3.90;78.10;;;;;;5030149;28;20026;-75
2020/12/05 07:45:06;;;;;;;4.85;3.42;;;3.90;78.20;;;;;;4995789;28;20320;-75
2020/12/05 07:47:32;;;;;;;4.43;3.33;;;3.90;78.20;;;;;;5008833;28;20029;-75
2020/12/05 07:49:59;;;;;;;5.10;3.53;;;3.90;78.10;;;;;;5012440;28;20109;-75
2020/12/05 07:52:25;;;;;;;4.93;3.78;;;3.80;78.10;;;;;;5008931;28;20088;-75
2020/12/05 07:54:55;;;;;;;4.45;3.25;;;3.90;78.10;;;;;;5013240;28;20042;-75
2020/12/05 07:57:26;;;;;;;5.30;3.50;;;3.90;78.20;;;;;;4995690;28;20470;-75
2020/12/05 08:00:20;;;;;;;4.72;4.00;;;3.80;78.10;;;;;;5012628;28;20041;-76
2020/12/05 08:03:18;;;;;;;5.43;3.63;;;3.90;78.20;;;;;;5012326;28;20029;-77
2020/12/05 08:06:16;;;;;;;5.00;3.45;;;3.90;78.20;;;;;;4995204;28;20046;-75
2020/12/05 08:08:52;;;;;;;4.80;3.58;;;3.90;78.20;;;;;;4989730;28;20490;-76
2020/12/05 08:11:18;;;;;;;4.85;3.35;;;3.90;78.20;;;;;;5010537;28;20026;-75
2020/12/05 08:13:47;;;;;;;4.60;3.35;;;3.80;78.10;;;;;;5000726;28;20394;-75
2020/12/05 08:16:15;;;;;;;4.40;3.22;;;3.80;78.20;;;;;;5012554;28;20034;-75
2020/12/05 08:18:41;;;;;;;7.18;3.58;;;3.80;78.20;;;;;;4996312;28;20109;-75
2020/12/05 08:21:07;;;;;;;5.22;3.63;;;3.80;78.20;;;;;;4995576;28;20133;-76
2020/12/05 08:23:38;;;;;;;5.90;3.42;;;3.80;78.20;;;;;;4993839;28;20530;-76
2020/12/05 08:26:07;;;;;;;5.13;3.72;;;3.80;78.30;;;;;;5013688;28;20113;-79
2020/12/05 08:28:42;;;;;;;5.82;3.70;;;3.80;78.30;;;;;;5012708;28;20022;-75
2020/12/05 08:31:12;;;;;;;4.75;3.60;;;3.90;78.40;;;;;;5008988;28;20061;-75
2020/12/05 08:33:42;;;;;;;5.47;3.70;;;3.80;78.30;;;;;;5012578;28;20124;-77
2020/12/05 08:36:20;;;;;;;4.55;3.45;;;3.80;78.30;;;;;;4989224;28;20034;-75
2020/12/05 08:38:47;;;;;;;5.07;3.47;;;3.80;78.30;;;;;;5013693;28;20117;-75
2020/12/05 08:41:13;;;;;;;4.38;3.55;;;3.90;78.30;;;;;;5012270;28;20533;-75
2020/12/05 08:43:39;;;;;;;5.20;3.38;;;3.90;78.30;;;;;;5013927;28;20038;-73
2020/12/05 08:46:22;;;;;;;4.80;3.47;;;3.80;78.30;;;;;;5011847;28;20472;-75
2020/12/05 08:48:49;;;;;;;5.55;3.55;;;3.90;78.50;;;;;;5011900;28;20034;-77
2020/12/05 08:51:26;;;;;;;5.35;3.67;;;3.90;78.40;;;;;;5011489;28;20069;-75
2020/12/05 08:54:06;;;;;;;4.90;3.72;;;3.90;78.50;;;;;;5011890;28;20113;-75
2020/12/05 08:56:32;;;;;;;4.85;3.45;;;3.90;78.50;;;;;;4989587;28;20026;-75
2020/12/05 08:58:58;;;;;;;4.93;3.80;;;3.90;78.40;;;;;;5013600;28;20128;-76
2020/12/05 09:01:41;;;;;;;5.65;3.60;;;3.90;78.40;;;;;;5404956;23;20054;-77
2020/12/05 09:04:07;;;;;;;4.50;3.40;;;3.90;78.50;;;;;;4987042;28;20042;-77
2020/12/05 09:06:34;;;;;;;5.05;3.47;;;3.90;78.40;;;;;;4981590;28;20086;-75
2020/12/05 09:08:59;;;;;;;4.55;3.20;;;3.90;78.40;;;;;;4987478;28;20034;-76
2020/12/05 09:11:26;;;;;;;4.80;3.65;;;3.90;78.50;;;;;;4973332;28;20046;-75
2020/12/05 09:13:53;;;;;;;4.85;3.47;;;3.90;78.50;;;;;;4986099;28;20030;-76
2020/12/05 09:16:19;;;;;;;4.68;3.67;;;4.00;78.50;;;;;;4991407;28;20033;-75
2020/12/05 09:18:47;;;;;;;4.40;3.30;;;4.00;78.50;;;;;;4987668;28;20122;-75
2020/12/05 09:21:13;;;;;;;4.63;3.55;;;4.00;78.60;;;;;;4988089;28;20492;-76
2020/12/05 09:23:39;;;;;;;4.88;3.20;;;4.00;78.50;;;;;;4994363;28;20100;-77
2020/12/05 09:26:07;;;;;;;4.30;3.20;;;4.00;78.60;;;;;;4993738;28;20054;-79
2020/12/05 09:28:33;;;;;;;4.32;3.35;;;4.00;78.60;;;;;;4988715;28;20479;-77
2020/12/05 09:31:09;;;;;;;4.47;3.28;;;4.10;78.60;;;;;;4966426;28;20038;-77
2020/12/05 09:33:35;;;;;;;4.60;3.47;;;4.10;78.60;;;;;;4980066;28;20038;-76
2020/12/05 09:36:02;;;;;;;5.50;3.75;;;4.10;78.60;;;;;;4973902;28;20056;-77
2020/12/05 09:38:28;;;;;;;4.43;3.38;;;4.10;78.60;;;;;;4990216;28;20026;-76
2020/12/05 09:40:54;;;;;;;4.40;3.33;;;4.10;78.60;;;;;;4945778;28;20034;-76
2020/12/05 09:43:19;;;;;;;4.20;3.33;;;4.10;78.60;;;;;;4980535;28;20026;-76
2020/12/05 09:45:45;;;;;;;4.95;3.20;;;4.10;78.60;;;;;;4964868;28;20035;-76
2020/12/05 09:48:11;;;;;;;4.78;3.10;;;4.10;78.60;;;;;;4969607;28;20042;-76
2020/12/05 09:50:37;;;;;;;5.10;3.45;;;4.10;78.70;;;;;;4990298;28;20493;-75
2020/12/05 09:53:02;;;;;;;4.90;3.47;;;4.20;78.70;;;;;;4995276;28;20026;-75
2020/12/05 09:55:28;;;;;;;4.50;3.28;;;4.20;78.70;;;;;;4992036;28;20033;-77
2020/12/05 09:57:54;;;;;;;4.88;3.83;;;4.20;78.70;;;;;;4983416;28;20034;-76
2020/12/05 10:00:20;;;;;;;4.72;3.63;;;4.20;78.80;;;;;;4980045;28;20422;-76
2020/12/05 10:02:46;;;;;;;4.88;3.50;;;4.20;78.80;;;;;;4974379;28;20058;-76
2020/12/05 10:05:12;;;;;;;5.00;3.60;;;4.20;78.80;;;;;;4990931;28;20084;-75
2020/12/05 10:07:38;;;;;;;5.20;3.67;;;4.20;78.80;;;;;;4989783;28;20034;-76
2020/12/05 10:10:06;;;;;;;4.22;3.15;;;4.30;78.90;;;;;;4988346;28;20058;-76
2020/12/05 10:12:38;;;;;;;4.43;3.17;;;4.30;78.90;;;;;;4987091;28;20532;-75
2020/12/05 10:15:06;;;;;;;4.22;3.00;;;4.30;78.90;;;;;;4982396;28;20489;-77
2020/12/05 10:17:33;;;;;;;4.30;3.05;;;4.30;78.90;;;;;;4984086;28;20031;-76
2020/12/05 10:19:59;;;;;;;3.72;2.80;;;4.30;78.90;;;;;;4990563;28;20027;-76
2020/12/05 10:22:30;;;;;;;4.30;2.97;;;4.30;78.90;;;;;;4984616;28;20035;-76
2020/12/05 10:24:56;;;;;;;3.80;2.83;;;4.30;78.90;;;;;;4975523;28;20521;-75
2020/12/05 10:27:21;;;;;;;3.83;2.97;;;4.40;79.00;;;;;;4979444;28;20034;-78
2020/12/05 10:29:48;;;;;;;4.30;3.20;;;4.40;79.00;;;;;;4988484;28;20382;-77
2020/12/05 10:32:14;;;;;;;3.75;2.97;;;4.40;79.00;;;;;;4973559;28;20034;-77
2020/12/05 10:34:40;;;;;;;3.75;2.90;;;4.40;79.00;;;;;;4974994;28;20435;-77
2020/12/05 10:37:06;;;;;;;3.22;2.78;;;4.40;79.00;;;;;;4991930;28;20065;-81
2020/12/05 10:39:32;;;;;;;4.20;3.08;;;4.40;79.00;;;;;;4972857;28;20058;-78
2020/12/05 10:41:58;;;;;;;4.32;3.00;;;4.50;79.00;;;;;;4976625;28;20037;-78
2020/12/05 10:44:24;;;;;;;4.47;2.95;;;4.50;79.00;;;;;;4971975;28;20486;-77
2020/12/05 10:46:50;;;;;;;4.00;2.90;;;4.50;79.00;;;;;;4990998;28;20022;-77
2020/12/05 10:49:18;;;;;;;4.50;3.20;;;4.50;79.00;;;;;;5006618;28;20035;-77
2020/12/05 10:51:44;;;;;;;3.92;2.80;;;4.50;79.00;;;;;;4992381;28;20031;-76
2020/12/05 10:54:10;;;;;;;4.20;2.80;;;4.60;79.10;;;;;;4993362;28;20062;-77
2020/12/05 10:56:38;;;;;;;3.75;3.00;;;4.50;79.00;;;;;;4992512;28;20132;-77
2020/12/05 10:59:04;;;;;;;3.53;2.60;;;4.60;79.10;;;;;;4993684;28;20109;-78
2020/12/05 11:01:30;;;;;;;3.70;2.80;;;4.60;79.10;;;;;;4974316;28;20047;-77
2020/12/05 11:03:56;;;;;;;3.85;2.80;;;4.60;79.10;;;;;;4990037;28;20030;-77
2020/12/05 11:06:24;;;;;;;4.85;3.15;;;4.70;79.80;;;;;;4967892;28;20042;-77
2020/12/05 11:08:51;;;;;;;4.68;3.22;;;4.70;79.20;;;;;;4970925;28;20549;-79
2020/12/05 11:11:17;;;;;;;3.65;2.75;;;4.70;79.10;;;;;;4993873;28;20048;-79
2020/12/05 11:13:43;;;;;;;4.18;2.90;;;4.70;79.10;;;;;;4993629;28;20049;-77
2020/12/05 11:16:09;;;;;;;3.47;2.65;;;4.70;79.20;;;;;;4991368;28;20026;-77
2020/12/05 11:18:36;;;;;;;3.25;2.40;;;4.70;79.20;;;;;;4980176;28;20058;-77
2020/12/05 11:21:02;;;;;;;4.25;3.03;;;4.80;79.20;;;;;;4988375;28;20035;-78
2020/12/05 11:23:28;;;;;;;3.75;2.70;;;4.80;79.20;;;;;;4991521;28;20048;-78
2020/12/05 11:25:54;;;;;;;3.42;2.60;;;4.80;79.20;;;;;;4975055;28;20122;-78
2020/12/05 11:28:20;;;;;;;3.25;2.42;;;4.80;79.20;;;;;;4985017;28;20031;-78
2020/12/05 11:30:46;;;;;;;3.75;2.80;;;4.90;79.30;;;;;;4981229;28;20041;-77
2020/12/05 11:33:12;;;;;;;4.35;2.70;;;4.80;79.20;;;;;;4985912;28;20042;-77
2020/12/05 11:35:38;;;;;;;3.63;2.70;;;4.90;79.90;;;;;;4991975;28;20117;-77
2020/12/05 11:38:04;;;;;;;4.30;2.85;;;4.90;79.30;;;;;;4977774;28;20045;-77
2020/12/05 11:40:29;;;;;;;4.15;2.90;;;4.90;79.90;;;;;;4980098;28;20037;-77
2020/12/05 11:42:55;;;;;;;3.80;2.80;;;5.00;79.30;;;;;;4981018;28;20033;-76
2020/12/05 11:45:21;;;;;;;3.45;2.22;;;5.00;79.40;;;;;;4982714;28;20109;-77
2020/12/05 11:47:47;;;;;;;3.70;2.40;;;5.00;79.30;;;;;;4988356;28;20500;-79
2020/12/05 11:50:13;;;;;;;3.55;2.65;;;5.00;79.30;;;;;;4968376;28;20486;-77
2020/12/05 11:52:38;;;;;;;3.58;2.40;;;5.00;79.30;;;;;;4978053;28;20405;-78
2020/12/05 11:55:04;;;;;;;3.28;2.45;;;5.10;79.30;;;;;;4987297;28;20129;-77
2020/12/05 11:57:30;;;;;;;3.42;2.63;;;5.10;79.30;;;;;;4992496;28;20058;-80
2020/12/05 11:59:56;;;;;;;2.30;2.10;;;5.10;79.30;;;;;;4972477;28;20030;-78
2020/12/05 12:02:22;;;;;;;3.55;2.50;;;5.20;79.40;;;;;;5001569;28;20047;-80
2020/12/05 12:04:48;;;;;;;3.05;2.50;;;5.20;79.40;;;;;;4964814;28;20042;-78
2020/12/05 12:07:14;;;;;;;2.85;2.22;;;5.20;79.40;;;;;;4979248;28;20038;-77
2020/12/05 12:09:39;;;;;;;3.28;2.50;;;5.20;79.40;;;;;;4998324;28;20031;-77
2020/12/05 12:12:05;;;;;;;3.65;2.70;;;5.30;79.40;;;;;;5003974;28;20045;-77
2020/12/05 12:14:31;;;;;;;2.92;2.50;;;5.30;79.40;;;;;;4975888;28;20397;-77
2020/12/05 12:16:57;;;;;;;2.85;2.50;;;5.30;79.40;;;;;;4974537;28;20058;-77
2020/12/05 12:19:23;;;;;;;2.85;2.10;;;5.40;79.50;;;;;;4982922;28;20030;-78
2020/12/05 12:21:49;;;;;;;3.15;2.38;;;5.40;79.40;;;;;;4991841;28;20038;-77
2020/12/05 12:24:15;;;;;;;4.00;2.60;;;5.40;79.50;;;;;;4976605;28;20405;-78
2020/12/05 12:26:40;;;;;;;4.40;2.42;;;5.40;79.40;;;;;;5005314;28;20027;-77
2020/12/05 12:29:06;;;;;;;3.05;2.30;;;5.50;79.50;;;;;;4964577;28;20045;-78
2020/12/05 12:31:32;;;;;;;3.15;2.50;;;5.50;79.50;;;;;;4991534;28;20050;-78
2020/12/05 12:33:57;;;;;;;3.60;2.60;;;5.60;79.50;;;;;;4985126;28;20371;-79
2020/12/05 12:36:24;;;;;;;3.20;2.50;;;5.60;79.50;;;;;;4978604;28;20045;-77
2020/12/05 12:38:49;;;;;;;3.30;2.50;;;5.60;79.50;;;;;;4987181;28;20035;-79
2020/12/05 12:41:19;;;;;;;3.38;2.58;;;5.60;79.50;;;;;;4981917;28;20038;-77
2020/12/05 12:43:46;;;;;;;3.55;2.42;;;5.70;80.20;;;;;;4984743;28;20097;-78
2020/12/05 12:46:13;;;;;;;3.05;2.33;;;5.70;79.60;;;;;;4987781;28;20038;-77
2020/12/05 12:48:39;;;;;;;3.33;2.58;;;5.70;79.50;;;;;;4981962;28;20093;-77
2020/12/05 12:51:07;;;;;;;2.63;2.17;;;5.80;79.50;;;;;;4973230;28;20584;-77
2020/12/05 12:53:33;;;;;;;2.88;2.25;;;5.80;79.50;;;;;;4965655;28;20585;-76
2020/12/05 12:55:59;;;;;;;3.58;2.50;;;5.80;79.50;;;;;;4989725;28;20109;-78
2020/12/05 13:00:56;;;;;;;2.78;2.30;;;5.90;79.60;;;;;;4978845;28;20054;-77
2020/12/05 13:03:23;;;;;;;4.03;2.50;;;5.90;79.50;;;;;;4953534;28;20041;-77
2020/12/05 13:05:49;;;;;;;3.47;2.50;;;5.90;79.50;;;;;;4984632;28;20038;-83
2020/12/05 13:08:15;;;;;;;3.22;2.30;;;5.90;79.50;;;;;;4948953;28;20085;-77
2020/12/05 13:10:41;;;;;;;2.42;2.08;;;6.00;79.50;;;;;;4990047;28;20039;-77